createdAt,value
2017-12-16T00:00:24.687Z,17.40
2017-12-16T00:05:40.186Z,19.40
2017-12-16T00:08:10.644Z,8.15
2017-12-16T00:10:39.666Z,11.82
2017-12-16T00:13:07.237Z,10.95
2017-12-16T00:15:35.662Z,18.62
2017-12-16T00:18:03.207Z,9.00
2017-12-16T00:20:30.714Z,13.57
2017-12-16T00:22:58.271Z,8.75
2017-12-16T00:25:25.822Z,12.35
2017-12-16T00:27:53.343Z,14.25
2017-12-16T00:30:21.102Z,8.32
2017-12-16T00:32:48.661Z,10.32
2017-12-16T00:35:16.918Z,12.63
2017-12-16T00:37:44.717Z,15.85
2017-12-16T00:40:12.261Z,22.25
2017-12-16T00:42:39.821Z,13.30
2017-12-16T00:45:08.606Z,9.75
2017-12-16T00:47:36.167Z,11.70
2017-12-16T00:50:03.679Z,12.20
2017-12-16T00:52:31.362Z,53.87
2017-12-16T00:54:58.872Z,16.37
2017-12-16T00:57:26.403Z,16.52
2017-12-16T00:59:54.373Z,19.05
2017-12-16T01:02:21.922Z,14.75
2017-12-16T01:04:49.431Z,8.95
2017-12-16T01:07:17.253Z,14.73
2017-12-16T01:09:44.762Z,21.60
2017-12-16T01:12:12.270Z,12.70
2017-12-16T01:14:39.935Z,12.30
2017-12-16T01:17:07.442Z,14.80
2017-12-16T01:19:34.958Z,11.30
2017-12-16T01:22:02.713Z,10.85
2017-12-16T01:24:30.219Z,24.42
2017-12-16T01:26:57.723Z,15.57
2017-12-16T01:29:25.286Z,17.00
2017-12-16T01:31:52.790Z,17.10
2017-12-16T01:34:32.056Z,16.40
2017-12-16T01:37:11.570Z,18.65
2017-12-16T01:39:39.126Z,10.60
2017-12-16T01:42:06.634Z,11.27
2017-12-16T01:44:34.138Z,18.17
2017-12-16T01:47:01.975Z,13.05
2017-12-16T01:49:29.516Z,15.10
2017-12-16T01:51:57.030Z,22.00
2017-12-16T01:54:24.839Z,17.65
2017-12-16T01:56:52.399Z,14.45
2017-12-16T01:59:19.914Z,14.52
2017-12-16T02:01:47.720Z,16.77
2017-12-16T02:04:15.347Z,24.17
2017-12-16T02:06:43.018Z,13.27
2017-12-16T02:09:10.994Z,14.90
2017-12-16T02:11:38.501Z,20.42
2017-12-16T02:14:06.006Z,13.23
2017-12-16T02:16:33.791Z,16.77
2017-12-16T02:19:01.303Z,16.08
2017-12-16T02:21:28.814Z,11.43
2017-12-16T02:23:56.386Z,11.30
2017-12-16T02:26:23.928Z,15.77
2017-12-16T02:28:51.497Z,13.43
2017-12-16T02:31:19.054Z,22.58
2017-12-16T02:33:46.565Z,15.43
2017-12-16T02:36:14.079Z,12.48
2017-12-16T02:38:41.927Z,16.92
2017-12-16T02:41:09.503Z,21.98
2017-12-16T02:43:37.967Z,12.88
2017-12-16T02:46:05.832Z,19.10
2017-12-16T02:48:33.339Z,14.48
2017-12-16T02:51:00.857Z,12.18
2017-12-16T02:53:28.414Z,18.80
2017-12-16T02:55:55.967Z,11.68
2017-12-16T02:58:23.827Z,10.80
2017-12-16T03:00:51.571Z,19.55
2017-12-16T03:03:19.073Z,22.10
2017-12-16T03:05:46.606Z,14.50
2017-12-16T03:08:14.151Z,14.10
2017-12-16T03:10:41.664Z,16.50
2017-12-16T03:13:09.174Z,18.10
2017-12-16T03:15:36.858Z,17.65
2017-12-16T03:18:04.411Z,16.90
2017-12-16T03:20:31.967Z,14.65
2017-12-16T03:22:59.706Z,12.55
2017-12-16T03:25:27.218Z,13.70
2017-12-16T03:27:54.727Z,19.02
2017-12-16T03:30:22.487Z,18.42
2017-12-16T03:32:50.002Z,18.77
2017-12-16T03:35:17.529Z,16.10
2017-12-16T03:37:45.085Z,18.12
2017-12-16T03:40:12.749Z,18.30
2017-12-16T03:42:40.253Z,20.50
2017-12-16T03:45:07.971Z,19.50
2017-12-16T03:47:35.475Z,15.75
2017-12-16T03:50:02.983Z,13.40
2017-12-16T03:52:30.542Z,11.68
2017-12-16T03:54:58.046Z,12.05
2017-12-16T03:57:25.558Z,20.65
2017-12-16T03:59:53.297Z,19.05
2017-12-16T04:02:20.817Z,24.48
2017-12-16T04:04:48.426Z,11.63
2017-12-16T04:07:16.265Z,13.00
2017-12-16T04:09:43.777Z,15.10
2017-12-16T04:12:11.281Z,11.75
2017-12-16T04:14:39.404Z,21.05
2017-12-16T04:17:06.954Z,14.38
2017-12-16T04:19:34.462Z,16.08
2017-12-16T04:22:02.890Z,16.98
2017-12-16T04:24:30.394Z,16.65
2017-12-16T04:26:57.922Z,13.55
2017-12-16T04:29:26.079Z,15.88
2017-12-16T04:31:54.048Z,30.70
2017-12-16T04:34:22.017Z,19.83
2017-12-16T04:36:49.754Z,21.27
2017-12-16T04:39:17.271Z,15.68
2017-12-16T04:41:44.785Z,16.42
2017-12-16T04:44:12.868Z,22.15
2017-12-16T04:46:40.407Z,15.57
2017-12-16T04:49:07.913Z,16.75
2017-12-16T04:51:35.647Z,14.23
2017-12-16T04:54:03.208Z,14.82
2017-12-16T04:56:30.717Z,18.10
2017-12-16T04:58:58.263Z,12.20
2017-12-16T05:01:25.771Z,13.25
2017-12-16T05:03:53.275Z,15.77
2017-12-16T05:06:20.822Z,14.02
2017-12-16T05:08:48.351Z,11.95
2017-12-16T05:11:15.857Z,11.12
2017-12-16T05:13:43.679Z,13.40
2017-12-16T05:16:11.238Z,16.67
2017-12-16T05:18:38.754Z,15.18
2017-12-16T05:21:06.742Z,15.73
2017-12-16T05:23:34.258Z,11.90
2017-12-16T05:26:01.761Z,24.58
2017-12-16T05:28:29.545Z,22.45
2017-12-16T05:30:57.056Z,16.92
2017-12-16T05:33:24.606Z,18.02
2017-12-16T05:35:52.401Z,14.35
2017-12-16T05:38:19.962Z,10.25
2017-12-16T05:40:47.473Z,17.17
2017-12-16T05:43:15.296Z,19.90
2017-12-16T05:45:43.428Z,18.00
2017-12-16T05:48:10.939Z,12.40
2017-12-16T05:50:38.723Z,15.43
2017-12-16T05:53:06.263Z,15.43
2017-12-16T05:55:33.770Z,14.23
2017-12-16T05:58:01.393Z,16.37
2017-12-16T06:00:29.350Z,12.95
2017-12-16T06:02:56.909Z,13.10
2017-12-16T06:05:25.492Z,16.15
2017-12-16T06:07:53.051Z,21.15
2017-12-16T06:10:20.558Z,16.98
2017-12-16T06:12:48.169Z,19.27
2017-12-16T06:15:15.728Z,13.30
2017-12-16T06:17:43.288Z,23.62
2017-12-16T06:20:11.063Z,14.90
2017-12-16T06:22:38.610Z,16.40
2017-12-16T06:25:06.170Z,18.23
2017-12-16T06:27:34.007Z,14.70
2017-12-16T06:30:01.521Z,10.45
2017-12-16T06:32:29.051Z,12.05
2017-12-16T06:34:56.637Z,15.43
2017-12-16T06:37:24.169Z,11.35
2017-12-16T06:39:51.727Z,11.82
2017-12-16T06:42:19.468Z,8.23
2017-12-16T06:44:48.370Z,9.07
2017-12-16T06:47:16.351Z,7.10
2017-12-16T06:49:43.940Z,8.05
2017-12-16T06:52:12.083Z,8.18
2017-12-16T06:54:39.643Z,7.55
2017-12-16T06:57:07.308Z,10.50
2017-12-16T06:59:34.852Z,9.25
2017-12-16T07:02:02.358Z,10.20
2017-12-16T07:04:30.084Z,7.60
2017-12-16T07:06:57.953Z,8.30
2017-12-16T07:09:25.926Z,6.20
2017-12-16T07:11:53.682Z,9.77
2017-12-16T07:14:21.193Z,6.55
2017-12-16T07:16:48.808Z,9.52
2017-12-16T07:19:16.566Z,8.98
2017-12-16T07:21:44.066Z,8.82
2017-12-16T07:24:11.580Z,9.77
2017-12-16T07:26:39.344Z,10.05
2017-12-16T07:29:06.848Z,13.18
2017-12-16T07:31:35.179Z,15.98
2017-12-16T07:34:02.738Z,15.27
2017-12-16T07:36:30.257Z,16.85
2017-12-16T07:38:57.765Z,16.20
2017-12-16T07:41:25.338Z,13.07
2017-12-16T07:43:52.913Z,17.67
2017-12-16T07:46:20.421Z,15.13
2017-12-16T07:48:48.195Z,15.50
2017-12-16T07:51:16.495Z,11.60
2017-12-16T07:53:44.001Z,15.85
2017-12-16T07:56:12.356Z,16.30
2017-12-16T07:58:39.856Z,17.77
2017-12-16T08:01:07.382Z,11.30
2017-12-16T08:03:35.290Z,23.30
2017-12-16T08:06:02.799Z,12.40
2017-12-16T08:08:30.477Z,15.80
2017-12-16T08:10:59.561Z,12.45
2017-12-16T08:13:28.105Z,17.12
2017-12-16T08:15:56.460Z,14.98
2017-12-16T08:18:27.409Z,21.30
2017-12-16T08:20:56.208Z,14.73
2017-12-16T08:23:23.751Z,16.65
2017-12-16T08:25:53.799Z,17.48
2017-12-16T08:28:22.248Z,18.85
2017-12-16T08:30:54.725Z,14.65
2017-12-16T08:33:22.287Z,17.08
2017-12-16T08:35:50.440Z,12.35
2017-12-16T08:38:18.212Z,8.45
2017-12-16T08:40:46.746Z,14.45
2017-12-16T08:43:14.935Z,16.05
2017-12-16T08:45:44.176Z,23.60
2017-12-16T08:48:12.552Z,16.62
2017-12-16T08:50:41.768Z,18.60
2017-12-16T08:53:09.587Z,19.15
2017-12-16T08:55:39.759Z,20.80
2017-12-16T08:58:08.215Z,22.33
2017-12-16T09:00:36.130Z,18.50
2017-12-16T09:03:03.656Z,20.23
2017-12-16T09:05:32.945Z,15.93
2017-12-16T09:08:02.448Z,19.45
2017-12-16T09:10:31.830Z,19.45
2017-12-16T09:12:59.950Z,17.17
2017-12-16T09:15:28.603Z,21.60
2017-12-16T09:17:56.958Z,19.23
2017-12-16T09:20:25.974Z,21.52
2017-12-16T09:22:53.659Z,27.48
2017-12-16T09:25:22.254Z,21.35
2017-12-16T09:27:49.874Z,23.65
2017-12-16T09:30:19.110Z,27.50
2017-12-16T09:32:47.376Z,27.30
2017-12-16T09:35:16.346Z,35.80
2017-12-16T09:37:43.909Z,32.08
2017-12-16T09:40:12.795Z,29.05
2017-12-16T09:42:40.311Z,26.48
2017-12-16T09:45:08.426Z,36.95
2017-12-16T09:47:36.083Z,30.67
2017-12-16T09:50:03.600Z,31.80
2017-12-16T09:52:31.723Z,36.13
2017-12-16T09:54:59.313Z,31.37
2017-12-16T09:57:26.846Z,37.95
2017-12-16T09:59:54.580Z,34.90
2017-12-16T10:02:22.102Z,34.15
2017-12-16T10:04:49.739Z,28.75
2017-12-16T10:07:17.398Z,34.40
2017-12-16T10:09:44.939Z,34.50
2017-12-16T10:12:13.113Z,34.40
2017-12-16T10:14:40.662Z,37.65
2017-12-16T10:17:08.231Z,34.83
2017-12-16T10:19:35.790Z,41.03
2017-12-16T10:22:03.384Z,32.42
2017-12-16T10:24:31.215Z,38.38
2017-12-16T10:26:59.082Z,34.38
2017-12-16T10:29:26.938Z,36.88
2017-12-16T10:31:56.133Z,39.30
2017-12-16T10:34:23.675Z,33.60
2017-12-16T10:36:51.254Z,33.72
2017-12-16T10:39:18.768Z,33.05
2017-12-16T10:41:48.297Z,33.88
2017-12-16T10:44:16.553Z,31.37
2017-12-16T10:46:45.186Z,34.08
2017-12-16T10:49:13.067Z,37.10
2017-12-16T10:51:41.645Z,56.60
2017-12-16T10:54:09.399Z,53.55
2017-12-16T10:56:37.674Z,38.95
2017-12-16T10:59:06.802Z,41.42
2017-12-16T11:01:34.632Z,34.00
2017-12-16T11:04:02.156Z,36.03
2017-12-16T11:06:30.078Z,36.90
2017-12-16T11:08:58.383Z,36.10
2017-12-16T11:11:25.920Z,33.88
2017-12-16T11:13:53.530Z,28.30
2017-12-16T11:16:21.214Z,34.65
2017-12-16T11:18:49.089Z,35.15
2017-12-16T11:21:17.056Z,53.70
2017-12-16T11:23:46.691Z,30.77
2017-12-16T11:26:14.433Z,30.88
2017-12-16T11:28:42.804Z,28.62
2017-12-16T11:31:10.475Z,22.30
2017-12-16T11:33:38.128Z,28.05
2017-12-16T11:36:06.404Z,27.05
2017-12-16T11:38:34.072Z,27.42
2017-12-16T11:41:01.831Z,33.45
2017-12-16T11:43:29.593Z,27.25
2017-12-16T11:45:57.372Z,24.23
2017-12-16T11:48:25.022Z,21.40
2017-12-16T11:50:53.690Z,22.48
2017-12-16T11:53:21.477Z,26.90
2017-12-16T11:55:49.232Z,25.37
2017-12-16T11:58:16.999Z,24.40
2017-12-16T12:00:44.760Z,18.90
2017-12-16T12:03:12.535Z,22.23
2017-12-16T12:05:40.390Z,24.05
2017-12-16T12:08:08.003Z,18.98
2017-12-16T12:10:35.714Z,25.55
2017-12-16T12:13:03.637Z,20.67
2017-12-16T12:15:31.162Z,25.88
2017-12-16T12:17:58.697Z,21.67
2017-12-16T12:20:26.313Z,19.55
2017-12-16T12:22:53.903Z,19.25
2017-12-16T12:25:21.580Z,26.08
2017-12-16T12:27:49.260Z,21.65
2017-12-16T12:30:17.008Z,15.43
2017-12-16T12:32:44.583Z,16.98
2017-12-16T12:35:12.227Z,18.48
2017-12-16T12:37:40.399Z,25.50
2017-12-16T12:40:08.068Z,19.83
2017-12-16T12:42:35.656Z,17.65
2017-12-16T12:45:03.384Z,20.10
2017-12-16T12:47:30.964Z,16.42
2017-12-16T12:49:58.912Z,14.85
2017-12-16T12:52:26.570Z,17.58
2017-12-16T12:54:54.166Z,15.52
2017-12-16T12:57:21.760Z,16.55
2017-12-16T12:59:49.559Z,19.25
2017-12-16T13:02:19.065Z,16.95
2017-12-16T13:04:46.715Z,13.95
2017-12-16T13:07:14.230Z,13.65
2017-12-16T13:09:41.753Z,16.45
2017-12-16T13:12:09.371Z,12.00
2017-12-16T13:14:36.894Z,17.05
2017-12-16T13:17:04.443Z,16.25
2017-12-16T13:19:31.991Z,15.70
2017-12-16T13:21:59.587Z,14.82
2017-12-16T13:24:27.182Z,15.38
2017-12-16T13:26:54.957Z,15.98
2017-12-16T13:29:22.475Z,14.73
2017-12-16T13:31:50.086Z,17.98
2017-12-16T13:34:18.478Z,19.10
2017-12-16T13:36:46.034Z,22.62
2017-12-16T13:39:13.674Z,23.33
2017-12-16T13:41:41.442Z,26.83
2017-12-16T13:44:08.950Z,21.42
2017-12-16T13:46:36.462Z,30.35
2017-12-16T13:49:04.346Z,32.25
2017-12-16T13:51:32.199Z,20.67
2017-12-16T13:53:59.741Z,22.10
2017-12-16T13:56:27.437Z,18.37
2017-12-16T13:58:55.175Z,26.25
2017-12-16T14:01:22.737Z,19.33
2017-12-16T14:03:50.396Z,19.80
2017-12-16T14:06:17.913Z,18.12
2017-12-16T14:08:45.425Z,21.10
2017-12-16T14:11:13.549Z,19.77
2017-12-16T14:13:41.066Z,25.12
2017-12-16T14:16:08.657Z,23.87
2017-12-16T14:18:36.363Z,22.77
2017-12-16T14:21:03.878Z,20.33
2017-12-16T14:23:31.385Z,21.65
2017-12-16T14:25:59.147Z,19.62
2017-12-16T14:28:26.744Z,24.37
2017-12-16T14:30:54.569Z,18.55
2017-12-16T14:33:22.539Z,18.27
2017-12-16T14:35:50.200Z,18.85
2017-12-16T14:38:17.910Z,18.40
2017-12-16T14:40:45.458Z,23.50
2017-12-16T14:43:12.996Z,21.02
2017-12-16T14:45:40.530Z,21.75
2017-12-16T14:48:08.302Z,22.35
2017-12-16T14:50:35.860Z,23.08
2017-12-16T14:53:03.370Z,24.98
2017-12-16T14:55:31.388Z,22.62
2017-12-16T14:57:58.948Z,22.17
2017-12-16T15:00:26.458Z,27.00
2017-12-16T15:02:54.270Z,24.50
2017-12-16T15:05:21.935Z,19.77
2017-12-16T15:07:49.593Z,32.35
2017-12-16T15:10:17.158Z,22.17
2017-12-16T15:12:44.757Z,27.00
2017-12-16T15:15:12.295Z,28.70
2017-12-16T15:17:39.884Z,26.60
2017-12-16T15:20:07.594Z,28.98
2017-12-16T15:22:35.270Z,21.95
2017-12-16T15:25:03.123Z,22.42
2017-12-16T15:27:30.782Z,34.17
2017-12-16T15:29:58.350Z,29.67
2017-12-16T15:32:25.894Z,35.83
2017-12-16T15:34:53.563Z,27.85
2017-12-16T15:37:21.140Z,29.80
2017-12-16T15:39:48.885Z,36.22
2017-12-16T15:42:17.371Z,22.90
2017-12-16T15:44:47.808Z,35.20
2017-12-16T15:47:15.658Z,26.05
2017-12-16T15:49:43.406Z,29.37
2017-12-16T15:52:12.108Z,22.00
2017-12-16T15:54:39.856Z,28.42
2017-12-16T15:57:07.596Z,34.47
2017-12-16T15:59:35.236Z,23.95
2017-12-16T16:02:02.906Z,25.10
2017-12-16T16:04:30.439Z,32.10
2017-12-16T16:06:58.077Z,26.37
2017-12-16T16:09:25.739Z,26.92
2017-12-16T16:11:53.502Z,23.42
2017-12-16T16:14:21.118Z,36.30
2017-12-16T16:16:50.003Z,20.20
2017-12-16T16:19:17.721Z,27.92
2017-12-16T16:21:45.781Z,21.87
2017-12-16T16:24:13.632Z,23.10
2017-12-16T16:26:41.315Z,21.52
2017-12-16T16:29:09.067Z,20.80
2017-12-16T16:31:36.673Z,24.35
2017-12-16T16:34:04.967Z,25.92
2017-12-16T16:36:33.293Z,28.73
2017-12-16T16:39:01.775Z,29.73
2017-12-16T16:41:29.564Z,18.80
2017-12-16T16:43:57.300Z,26.90
2017-12-16T16:46:26.185Z,27.90
2017-12-16T16:48:53.991Z,32.85
2017-12-16T16:51:21.784Z,26.25
2017-12-16T16:53:49.403Z,23.92
2017-12-16T16:56:17.077Z,26.10
2017-12-16T16:58:45.112Z,23.00
2017-12-16T17:01:14.338Z,28.67
2017-12-16T17:03:42.026Z,25.75
2017-12-16T17:06:10.056Z,28.62
2017-12-16T17:08:38.817Z,24.00
2017-12-16T17:11:07.518Z,21.67
2017-12-16T17:13:36.626Z,24.77
2017-12-16T17:16:05.917Z,27.02
2017-12-16T17:18:33.748Z,32.03
2017-12-16T17:21:02.262Z,37.08
2017-12-16T17:23:30.332Z,28.05
2017-12-16T17:25:58.913Z,35.22
2017-12-16T17:28:26.984Z,32.75
2017-12-16T17:30:54.889Z,31.65
2017-12-16T17:33:23.947Z,36.95
2017-12-16T17:35:51.713Z,29.40
2017-12-16T17:38:19.471Z,28.62
2017-12-16T17:40:47.237Z,30.42
2017-12-16T17:43:14.811Z,35.17
2017-12-16T17:45:44.765Z,32.97
2017-12-16T17:48:13.460Z,25.30
2017-12-16T17:50:41.218Z,28.40
2017-12-16T17:53:09.322Z,33.05
2017-12-16T17:55:36.841Z,23.60
2017-12-16T17:58:04.555Z,27.98
2017-12-16T18:00:33.021Z,26.80
2017-12-16T18:03:00.595Z,30.25
2017-12-16T18:05:28.464Z,25.05
2017-12-16T18:07:56.235Z,28.05
2017-12-16T18:10:23.851Z,32.88
2017-12-16T18:12:52.076Z,27.05
2017-12-16T18:15:19.926Z,31.73
2017-12-16T18:17:47.559Z,23.50
2017-12-16T18:20:15.235Z,26.52
2017-12-16T18:22:43.054Z,25.62
2017-12-16T18:25:10.584Z,27.98
2017-12-16T18:27:38.290Z,28.40
2017-12-16T18:30:06.801Z,31.33
2017-12-16T18:32:34.828Z,27.23
2017-12-16T18:35:02.548Z,33.72
2017-12-16T18:37:30.725Z,25.55
2017-12-16T18:39:58.492Z,24.55
2017-12-16T18:42:26.086Z,38.30
2017-12-16T18:44:53.809Z,26.67
2017-12-16T18:47:21.578Z,29.85
2017-12-16T18:49:49.338Z,27.10
2017-12-16T18:52:17.105Z,24.10
2017-12-16T18:54:44.677Z,28.55
2017-12-16T18:57:12.258Z,27.15
2017-12-16T18:59:40.200Z,30.55
2017-12-16T19:02:07.822Z,37.78
2017-12-16T19:04:36.432Z,26.77
2017-12-16T19:07:04.373Z,27.55
2017-12-16T19:09:33.943Z,35.55
2017-12-16T19:12:02.415Z,32.92
2017-12-16T19:14:33.327Z,31.55
2017-12-16T19:17:00.914Z,33.13
2017-12-16T19:19:28.552Z,28.77
2017-12-16T19:21:56.521Z,29.30
2017-12-16T19:24:24.077Z,24.12
2017-12-16T19:26:51.824Z,18.20
2017-12-16T19:29:19.446Z,23.70
2017-12-16T19:31:47.180Z,26.35
2017-12-16T19:34:15.028Z,28.83
2017-12-16T19:36:42.997Z,27.20
2017-12-16T19:39:10.565Z,29.90
2017-12-16T19:41:39.077Z,27.70
2017-12-16T19:44:07.415Z,21.73
2017-12-16T19:46:35.588Z,29.87
2017-12-16T19:49:03.454Z,23.55
2017-12-16T19:51:31.475Z,21.17
2017-12-16T19:53:59.083Z,22.50
2017-12-16T19:56:27.565Z,20.73
2017-12-16T19:58:55.554Z,31.67
2017-12-16T20:01:23.262Z,28.95
2017-12-16T20:03:50.910Z,26.65
2017-12-16T20:06:19.027Z,29.95
2017-12-16T20:08:46.692Z,27.52
2017-12-16T20:11:14.577Z,29.25
2017-12-16T20:13:42.527Z,17.55
2017-12-16T20:16:10.290Z,23.27
2017-12-16T20:18:38.057Z,30.08
2017-12-16T20:21:05.924Z,22.23
2017-12-16T20:23:33.703Z,25.70
2017-12-16T20:26:01.448Z,25.83
2017-12-16T20:28:29.622Z,21.25
2017-12-16T20:30:57.488Z,26.90
2017-12-16T20:33:25.341Z,28.10
2017-12-16T20:35:54.245Z,23.12
2017-12-16T20:38:22.009Z,31.75
2017-12-16T20:40:49.772Z,24.50
2017-12-16T20:43:17.758Z,35.90
2017-12-16T20:45:45.629Z,24.63
2017-12-16T20:48:13.681Z,23.80
2017-12-16T20:50:41.722Z,23.42
2017-12-16T20:53:10.144Z,27.17
2017-12-16T20:55:37.905Z,24.83
2017-12-16T20:58:05.821Z,25.15
2017-12-16T21:00:33.776Z,23.42
2017-12-16T21:03:01.707Z,26.80
2017-12-16T21:05:29.562Z,24.55
2017-12-16T21:07:57.224Z,25.45
2017-12-16T21:10:24.783Z,31.00
2017-12-16T21:12:52.753Z,24.48
2017-12-16T21:15:21.540Z,34.72
2017-12-16T21:17:49.147Z,26.02
2017-12-16T21:20:16.965Z,25.85
2017-12-16T21:22:44.626Z,32.22
2017-12-16T21:25:12.227Z,21.70
2017-12-16T21:27:40.052Z,22.98
2017-12-16T21:30:07.609Z,22.67
2017-12-16T21:32:35.375Z,31.30
2017-12-16T21:35:03.338Z,21.85
2017-12-16T21:37:32.029Z,23.77
2017-12-16T21:39:59.805Z,16.98
2017-12-16T21:42:27.868Z,21.42
2017-12-16T21:44:55.525Z,21.48
2017-12-16T21:47:23.188Z,16.62
2017-12-16T21:49:51.257Z,17.23
2017-12-16T21:52:18.849Z,18.50
2017-12-16T21:54:46.581Z,20.77
2017-12-16T21:57:14.203Z,23.75
2017-12-16T21:59:42.621Z,33.30
2017-12-16T22:02:10.589Z,18.30
2017-12-16T22:04:38.766Z,19.45
2017-12-16T22:07:07.141Z,17.80
2017-12-16T22:09:34.713Z,20.92
2017-12-16T22:12:03.435Z,16.73
2017-12-16T22:14:30.992Z,16.17
2017-12-16T22:16:59.733Z,18.12
2017-12-16T22:19:27.306Z,18.92
2017-12-16T22:21:54.953Z,18.40
2017-12-16T22:24:22.515Z,22.65
2017-12-16T22:26:50.148Z,21.75
2017-12-16T22:29:17.685Z,20.12
2017-12-16T22:31:45.317Z,21.65
2017-12-16T22:34:13.982Z,25.48
2017-12-16T22:36:41.531Z,25.48
2017-12-16T22:39:09.090Z,20.67
2017-12-16T22:41:37.154Z,19.17
2017-12-16T22:44:04.742Z,27.08
2017-12-16T22:46:33.210Z,23.08
2017-12-16T22:49:01.071Z,27.85
2017-12-16T22:51:28.588Z,19.75
2017-12-16T22:53:56.151Z,22.05
2017-12-16T22:56:23.925Z,22.83
2017-12-16T22:58:59.113Z,15.55
2017-12-16T23:01:26.654Z,13.40
2017-12-16T23:03:55.132Z,18.15
2017-12-16T23:06:23.145Z,17.45
2017-12-16T23:08:51.406Z,15.63
2017-12-16T23:11:19.040Z,14.35
2017-12-16T23:13:46.608Z,13.68
2017-12-16T23:16:14.451Z,15.55
2017-12-16T23:18:42.228Z,21.20
2017-12-16T23:21:09.870Z,17.80
2017-12-16T23:23:37.767Z,11.90
2017-12-16T23:26:05.325Z,13.20
2017-12-16T23:28:32.916Z,13.95
2017-12-16T23:31:00.542Z,16.40
2017-12-16T23:33:28.303Z,15.88
2017-12-16T23:35:56.183Z,13.27
2017-12-16T23:38:24.367Z,19.50
2017-12-16T23:40:52.821Z,24.15
2017-12-16T23:43:20.422Z,14.05
2017-12-16T23:45:48.176Z,12.98
2017-12-16T23:48:15.701Z,10.65
2017-12-16T23:50:44.082Z,15.65
2017-12-16T23:53:12.152Z,11.85
2017-12-16T23:55:39.785Z,12.00
2017-12-16T23:58:08.089Z,9.05
